createdAt,value
2019-04-29T00:01:02.104Z,102177.30
2019-04-29T00:04:05.972Z,102169.34
2019-04-29T00:07:09.981Z,102167.56
2019-04-29T00:10:17.098Z,102170.24
2019-04-29T00:13:21.042Z,102166.68
2019-04-29T00:16:35.932Z,102163.14
2019-04-29T00:19:58.928Z,102162.73
2019-04-29T00:23:02.831Z,102161.38
2019-04-29T00:26:06.795Z,102158.73
2019-04-29T00:29:10.685Z,102159.20
2019-04-29T00:32:14.533Z,102148.59
2019-04-29T00:35:18.536Z,102152.54
2019-04-29T00:38:46.232Z,102155.21
2019-04-29T00:42:24.194Z,102156.52
2019-04-29T00:45:28.186Z,102152.97
2019-04-29T00:48:32.099Z,102157.86
2019-04-29T00:51:36.099Z,102158.30
2019-04-29T00:54:48.794Z,102161.84
2019-04-29T00:57:52.627Z,102162.25
2019-04-29T01:00:56.600Z,102161.38
2019-04-29T01:04:00.531Z,102162.25
2019-04-29T01:07:05.090Z,102162.25
2019-04-29T01:10:09.363Z,102159.61
2019-04-29T01:13:13.297Z,102163.14
2019-04-29T01:16:17.227Z,102155.61
2019-04-29T01:19:21.163Z,102165.79
2019-04-29T01:22:25.338Z,102167.55
2019-04-29T01:25:29.257Z,102160.50
2019-04-29T01:28:42.669Z,102161.80
2019-04-29T01:31:46.636Z,102156.47
2019-04-29T01:34:53.086Z,102149.38
2019-04-29T01:37:56.922Z,102157.38
2019-04-29T01:41:07.296Z,102154.25
2019-04-29T01:44:11.322Z,102147.63
2019-04-29T01:47:15.219Z,102149.84
2019-04-29T01:50:19.091Z,102155.11
2019-04-29T01:53:22.928Z,102160.86
2019-04-29T01:56:26.920Z,102153.81
2019-04-29T01:59:30.857Z,102158.66
2019-04-29T02:02:34.662Z,102162.66
2019-04-29T02:05:38.501Z,102161.31
2019-04-29T02:08:42.414Z,102157.77
2019-04-29T02:11:46.267Z,102163.52
2019-04-29T02:14:50.116Z,102157.78
2019-04-29T02:17:54.013Z,102155.09
2019-04-29T02:20:57.815Z,102159.50
2019-04-29T02:24:10.104Z,102156.38
2019-04-29T02:27:13.965Z,102156.41
2019-04-29T02:30:41.106Z,102152.84
2019-04-29T02:33:44.953Z,102146.27
2019-04-29T02:36:48.795Z,102144.47
2019-04-29T02:39:59.300Z,102142.69
2019-04-29T02:43:09.415Z,102141.75
2019-04-29T02:46:13.392Z,102144.34
2019-04-29T02:49:17.305Z,102150.64
2019-04-29T02:52:21.194Z,102155.53
2019-04-29T02:55:32.284Z,102159.09
2019-04-29T02:58:51.265Z,102156.04
2019-04-29T03:02:17.419Z,102160.80
2019-04-29T03:05:26.699Z,102154.64
2019-04-29T03:08:30.610Z,102155.16
2019-04-29T03:11:34.635Z,102157.81
2019-04-29T03:14:38.916Z,102157.34
2019-04-29T03:17:43.220Z,102156.47
2019-04-29T03:21:06.138Z,102154.70
2019-04-29T03:24:10.057Z,102157.80
2019-04-29T03:27:13.885Z,102160.48
2019-04-29T03:30:17.863Z,102168.43
2019-04-29T03:33:21.672Z,102173.73
2019-04-29T03:36:25.618Z,102173.69
2019-04-29T03:39:29.509Z,102164.89
2019-04-29T03:42:33.495Z,102167.53
2019-04-29T03:45:37.438Z,102165.77
2019-04-29T03:48:41.287Z,102173.31
2019-04-29T03:51:45.190Z,102175.52
2019-04-29T03:54:49.036Z,102173.28
2019-04-29T03:57:52.930Z,102170.65
2019-04-29T04:01:07.624Z,102162.72
2019-04-29T04:04:17.659Z,102168.01
2019-04-29T04:07:38.664Z,102162.28
2019-04-29T04:10:42.545Z,102164.48
2019-04-29T04:13:46.391Z,102170.62
2019-04-29T04:17:09.262Z,102174.66
2019-04-29T04:20:13.493Z,102173.30
2019-04-29T04:23:17.332Z,102182.61
2019-04-29T04:26:21.143Z,102189.25
2019-04-29T04:29:24.980Z,102195.86
2019-04-29T04:32:28.808Z,102194.11
2019-04-29T04:35:32.711Z,102206.92
2019-04-29T04:38:36.545Z,102204.27
2019-04-29T04:41:40.351Z,102209.58
2019-04-29T04:44:50.432Z,102218.84
2019-04-29T04:47:54.239Z,102223.24
2019-04-29T04:50:58.142Z,102217.52
2019-04-29T04:54:01.950Z,102207.81
2019-04-29T04:57:06.007Z,102210.90
2019-04-29T05:00:19.996Z,102197.20
2019-04-29T05:03:22.233Z,102198.50
2019-04-29T05:06:26.042Z,102199.39
2019-04-29T05:09:29.934Z,102206.48
2019-04-29T05:12:33.758Z,102210.02
2019-04-29T05:15:37.599Z,102203.81
2019-04-29T05:18:41.421Z,102217.95
2019-04-29T05:21:45.240Z,102219.30
2019-04-29T05:24:49.048Z,102219.73
2019-04-29T05:27:52.871Z,102216.19
2019-04-29T05:30:56.662Z,102216.20
2019-04-29T05:34:00.481Z,102210.00
2019-04-29T05:37:11.412Z,102220.61
2019-04-29T05:40:34.308Z,102232.11
2019-04-29T05:43:57.190Z,102228.55
2019-04-29T05:47:17.823Z,102220.61
2019-04-29T05:50:27.974Z,102211.34
2019-04-29T05:53:38.738Z,102209.13
2019-04-29T05:56:42.642Z,102213.97
2019-04-29T05:59:47.842Z,102202.51
2019-04-29T06:02:51.968Z,102210.47
2019-04-29T06:05:55.845Z,102230.75
2019-04-29T06:08:59.674Z,102226.80
2019-04-29T06:12:03.552Z,102222.38
2019-04-29T06:15:08.535Z,102219.30
2019-04-29T06:18:12.346Z,102226.81
2019-04-29T06:21:16.223Z,102228.98
2019-04-29T06:24:20.021Z,102229.00
2019-04-29T06:27:23.852Z,102218.85
2019-04-29T06:30:27.668Z,102217.07
2019-04-29T06:33:31.480Z,102225.03
2019-04-29T06:36:35.461Z,102213.54
2019-04-29T06:39:39.274Z,102206.48
2019-04-29T06:42:43.106Z,102210.44
2019-04-29T06:45:46.983Z,102212.22
2019-04-29T06:48:50.820Z,102213.55
2019-04-29T06:51:54.635Z,102227.67
2019-04-29T06:54:58.537Z,102240.48
2019-04-29T06:58:02.420Z,102235.64
2019-04-29T07:01:06.297Z,102235.18
2019-04-29T07:04:10.137Z,102237.81
2019-04-29T07:07:13.963Z,102236.92
2019-04-29T07:10:21.277Z,102230.32
2019-04-29T07:13:24.644Z,102232.49
2019-04-29T07:16:31.931Z,102232.94
2019-04-29T07:19:34.086Z,102232.95
2019-04-29T07:22:37.892Z,102231.17
2019-04-29T07:25:41.686Z,102236.02
2019-04-29T07:28:48.776Z,102227.63
2019-04-29T07:31:51.104Z,102223.14
2019-04-29T07:34:54.933Z,102230.20
2019-04-29T07:37:58.762Z,102228.41
2019-04-29T07:41:02.572Z,102233.16
2019-04-29T07:44:06.532Z,102226.95
2019-04-29T07:47:10.341Z,102225.20
2019-04-29T07:50:14.747Z,102231.77
2019-04-29T07:53:21.917Z,102234.37
2019-04-29T07:56:24.227Z,102234.36
2019-04-29T07:59:28.068Z,102240.49
2019-04-29T08:02:31.874Z,102242.72
2019-04-29T08:05:36.286Z,102241.31
2019-04-29T08:08:53.949Z,102241.67
2019-04-29T08:11:47.980Z,102232.31
2019-04-29T08:14:57.811Z,102238.41
2019-04-29T08:18:06.469Z,102241.99
2019-04-29T08:21:04.658Z,102239.31
2019-04-29T08:24:11.630Z,102248.13
2019-04-29T08:27:14.087Z,102248.83
2019-04-29T08:30:18.400Z,102249.63
2019-04-29T08:33:22.314Z,102247.90
2019-04-29T08:36:26.139Z,102247.39
2019-04-29T08:39:31.169Z,102251.36
2019-04-29T08:42:41.391Z,102255.78
2019-04-29T08:45:48.444Z,102254.95
2019-04-29T08:48:52.261Z,102251.31
2019-04-29T08:51:56.141Z,102257.90
2019-04-29T08:54:59.965Z,102260.02
2019-04-29T08:58:06.891Z,102263.61
2019-04-29T09:01:09.541Z,102256.80
2019-04-29T09:04:13.367Z,102262.99
2019-04-29T09:07:21.836Z,102257.89
2019-04-29T09:10:22.789Z,102257.45
2019-04-29T09:13:26.687Z,102260.52
2019-04-29T09:16:30.498Z,102262.95
2019-04-29T09:19:34.402Z,102261.15
2019-04-29T09:22:40.903Z,102258.95
2019-04-29T09:26:03.100Z,102256.48
2019-04-29T09:29:25.304Z,102265.13
2019-04-29T09:32:29.125Z,102266.00
2019-04-29T09:35:33.820Z,102257.63
2019-04-29T09:38:38.743Z,102259.14
2019-04-29T09:41:58.755Z,102254.77
2019-04-29T09:45:09.258Z,102252.95
2019-04-29T09:48:13.135Z,102257.91
2019-04-29T09:51:18.245Z,102258.72
2019-04-29T09:54:22.625Z,102247.37
2019-04-29T09:57:26.473Z,102251.16
2019-04-29T10:01:01.591Z,102245.21
2019-04-29T10:04:39.659Z,102240.76
2019-04-29T10:07:43.828Z,102242.97
2019-04-29T10:10:47.716Z,102235.77
2019-04-29T10:13:51.538Z,102226.56
2019-04-29T10:17:17.373Z,102230.06
2019-04-29T10:20:26.035Z,102227.06
2019-04-29T10:23:29.862Z,102221.30
2019-04-29T10:26:33.767Z,102225.66
2019-04-29T10:29:38.444Z,102217.70
2019-04-29T10:32:43.599Z,102208.50
2019-04-29T10:35:47.453Z,102213.59
2019-04-29T10:38:53.102Z,102217.00
2019-04-29T10:41:58.805Z,102213.11
2019-04-29T10:45:15.149Z,102210.44
2019-04-29T10:48:26.274Z,102209.20
2019-04-29T10:51:30.160Z,102211.84
2019-04-29T10:54:34.686Z,102206.16
2019-04-29T10:57:38.537Z,102207.61
2019-04-29T11:01:30.696Z,102207.50
2019-04-29T11:04:36.074Z,102205.75
2019-04-29T11:07:41.079Z,102194.89
2019-04-29T11:10:44.987Z,102197.90
2019-04-29T11:13:50.628Z,102202.52
2019-04-29T11:16:54.383Z,102193.77
2019-04-29T11:19:58.270Z,102196.44
2019-04-29T11:23:16.601Z,102191.17
2019-04-29T11:26:32.226Z,102181.27
2019-04-29T11:29:36.143Z,102178.59
2019-04-29T11:32:44.949Z,102182.77
2019-04-29T11:35:59.202Z,102177.52
2019-04-29T11:39:01.750Z,102167.79
2019-04-29T11:42:08.616Z,102175.57
2019-04-29T11:45:13.681Z,102175.27
2019-04-29T11:48:17.860Z,102173.07
2019-04-29T11:51:48.421Z,102173.17
2019-04-29T11:54:41.148Z,102173.41
2019-04-29T11:58:03.982Z,102171.03
2019-04-29T12:01:37.475Z,102170.92
2019-04-29T12:04:37.824Z,102171.85
2019-04-29T12:07:41.879Z,102164.22
2019-04-29T12:10:51.802Z,102161.76
2019-04-29T12:14:09.475Z,102167.57
2019-04-29T12:17:20.639Z,102165.71
2019-04-29T12:20:30.056Z,102164.27
2019-04-29T12:23:33.934Z,102167.99
2019-04-29T12:26:43.179Z,102169.00
2019-04-29T12:29:43.599Z,102166.97
2019-04-29T12:33:01.306Z,102159.58
2019-04-29T12:36:06.494Z,102158.78
2019-04-29T12:39:43.079Z,102164.79
2019-04-29T12:43:05.086Z,102166.88
2019-04-29T12:46:13.923Z,102157.97
2019-04-29T12:49:17.747Z,102154.16
2019-04-29T12:52:21.826Z,102158.90
2019-04-29T12:55:44.183Z,102149.31
2019-04-29T12:58:38.437Z,102144.94
2019-04-29T13:01:59.547Z,102152.61
2019-04-29T13:05:25.977Z,102146.48
2019-04-29T13:08:33.540Z,102145.53
2019-04-29T13:11:48.016Z,102139.64
2019-04-29T13:15:02.536Z,102136.77
2019-04-29T13:18:13.008Z,102133.02
2019-04-29T13:21:10.832Z,102130.70
2019-04-29T13:24:24.271Z,102127.06
2019-04-29T13:27:24.854Z,102127.33
2019-04-29T13:30:26.328Z,102128.55
2019-04-29T13:33:30.240Z,102116.05
2019-04-29T13:36:34.252Z,102123.88
2019-04-29T13:39:40.538Z,102122.25
2019-04-29T13:42:48.483Z,102127.34
2019-04-29T13:45:56.042Z,102129.11
2019-04-29T13:49:13.579Z,102121.06
2019-04-29T13:52:16.531Z,102117.77
2019-04-29T13:55:46.551Z,102120.95
2019-04-29T13:58:27.030Z,102106.81
2019-04-29T14:01:57.810Z,102125.72
2019-04-29T14:04:55.881Z,102110.20
2019-04-29T14:07:59.773Z,102114.97
2019-04-29T14:11:03.756Z,102110.44
2019-04-29T14:14:07.585Z,102108.69
2019-04-29T14:17:25.314Z,102105.30
2019-04-29T14:20:17.545Z,102104.30
2019-04-29T14:23:21.451Z,102107.80
2019-04-29T14:26:25.291Z,102104.42
2019-04-29T14:29:30.332Z,102096.86
2019-04-29T14:32:38.062Z,102105.75
2019-04-29T14:35:59.614Z,102099.80
2019-04-29T14:39:05.927Z,102100.25
2019-04-29T14:42:30.189Z,102107.35
2019-04-29T14:45:48.647Z,102100.98
2019-04-29T14:49:04.302Z,102098.39
2019-04-29T14:52:08.389Z,102103.83
2019-04-29T14:55:14.792Z,102098.20
2019-04-29T14:58:17.381Z,102101.09
2019-04-29T15:01:27.324Z,102101.00
2019-04-29T15:04:34.642Z,102097.84
2019-04-29T15:07:38.513Z,102095.52
2019-04-29T15:10:43.192Z,102101.09
2019-04-29T15:13:49.035Z,102100.61
2019-04-29T15:16:59.025Z,102096.26
2019-04-29T15:20:11.570Z,102099.36
2019-04-29T15:23:27.939Z,102103.58
2019-04-29T15:26:21.068Z,102107.52
2019-04-29T15:29:24.900Z,102098.13
2019-04-29T15:32:28.813Z,102110.55
2019-04-29T15:35:32.667Z,102105.45
2019-04-29T15:38:36.539Z,102105.99
2019-04-29T15:41:40.483Z,102101.69
2019-04-29T15:44:44.517Z,102105.44
2019-04-29T15:47:48.369Z,102104.40
2019-04-29T15:50:52.203Z,102101.89
2019-04-29T15:53:56.098Z,102103.11
2019-04-29T15:57:03.656Z,102102.06
2019-04-29T16:00:20.618Z,102103.53
2019-04-29T16:03:16.833Z,102104.23
2019-04-29T16:06:46.141Z,102102.05
2019-04-29T16:10:07.857Z,102111.19
2019-04-29T16:13:12.149Z,102110.73
2019-04-29T16:16:16.039Z,102108.16
2019-04-29T16:19:19.951Z,102113.02
2019-04-29T16:22:23.786Z,102113.88
2019-04-29T16:25:27.582Z,102117.13
2019-04-29T16:28:36.548Z,102117.98
2019-04-29T16:31:37.012Z,102109.67
2019-04-29T16:34:44.663Z,102122.30
2019-04-29T16:37:46.653Z,102122.38
2019-04-29T16:40:58.192Z,102119.14
2019-04-29T16:44:02.034Z,102126.22
2019-04-29T16:47:13.127Z,102121.89
2019-04-29T16:50:13.478Z,102123.52
2019-04-29T16:53:17.396Z,102124.19
2019-04-29T16:56:21.516Z,102120.61
2019-04-29T16:59:25.310Z,102116.86
2019-04-29T17:02:29.108Z,102118.41
2019-04-29T17:05:32.919Z,102122.54
2019-04-29T17:09:02.906Z,102123.42
2019-04-29T17:12:01.814Z,102127.43
2019-04-29T17:18:12.215Z,102130.12
2019-04-29T17:21:16.044Z,102128.79
2019-04-29T17:24:19.877Z,102135.89
2019-04-29T17:27:35.091Z,102127.50
2019-04-29T17:31:12.227Z,102131.91
2019-04-29T17:34:54.806Z,102138.94
2019-04-29T17:35:18.696Z,102123.67
2019-04-29T17:37:30.937Z,102136.48
2019-04-29T17:40:37.299Z,102138.97
2019-04-29T17:43:52.196Z,102140.61
2019-04-29T17:47:11.446Z,102150.38
2019-04-29T17:50:32.774Z,102149.69
2019-04-29T17:53:40.909Z,102150.31
2019-04-29T17:57:10.207Z,102143.41
2019-04-29T18:00:18.551Z,102150.20
2019-04-29T18:03:41.404Z,102143.03
2019-04-29T18:07:08.165Z,102146.95
2019-04-29T18:10:17.659Z,102157.17
2019-04-29T18:13:23.749Z,102154.26
2019-04-29T18:16:30.455Z,102149.78
2019-04-29T18:19:42.238Z,102154.95
2019-04-29T18:23:00.195Z,102153.43
2019-04-29T18:26:07.433Z,102155.87
2019-04-29T18:29:11.509Z,102163.43
2019-04-29T18:32:15.622Z,102157.27
2019-04-29T18:35:19.589Z,102156.27
2019-04-29T18:38:26.258Z,102162.37
2019-04-29T18:41:28.971Z,102158.22
2019-04-29T18:44:32.919Z,102158.59
2019-04-29T18:47:38.773Z,102164.19
2019-04-29T18:50:42.435Z,102162.45
2019-04-29T18:53:47.184Z,102171.70
2019-04-29T18:56:51.216Z,102167.55
2019-04-29T18:59:55.140Z,102168.80
2019-04-29T19:03:01.044Z,102169.13
2019-04-29T19:06:10.264Z,102170.28
2019-04-29T19:09:17.802Z,102177.23
2019-04-29T19:12:16.889Z,102181.00
2019-04-29T19:15:20.693Z,102176.36
2019-04-29T19:18:25.477Z,102179.22
2019-04-29T19:21:31.481Z,102186.45
2019-04-29T19:24:36.587Z,102190.11
2019-04-29T19:27:40.939Z,102194.67
2019-04-29T19:30:45.203Z,102201.84
2019-04-29T19:33:49.148Z,102208.66
2019-04-29T19:36:57.992Z,102202.59
2019-04-29T19:39:59.656Z,102203.53
2019-04-29T19:43:03.488Z,102199.61
2019-04-29T19:46:07.324Z,102200.16
2019-04-29T19:49:11.168Z,102199.36
2019-04-29T19:52:19.012Z,102192.31
2019-04-29T19:55:20.652Z,102192.80
2019-04-29T19:58:29.541Z,102200.88
2019-04-29T20:01:32.240Z,102203.18
2019-04-29T20:04:44.377Z,102211.29
2019-04-29T20:07:50.732Z,102209.62
2019-04-29T20:10:58.124Z,102210.94
2019-04-29T20:14:04.441Z,102200.87
2019-04-29T20:17:19.086Z,102196.88
2019-04-29T20:20:35.040Z,102203.52
2019-04-29T20:23:39.258Z,102195.56
2019-04-29T20:26:44.167Z,102202.24
2019-04-29T20:29:48.040Z,102204.95
2019-04-29T20:32:52.021Z,102204.14
2019-04-29T20:36:01.630Z,102200.20
2019-04-29T20:39:01.610Z,102207.73
2019-04-29T20:42:10.276Z,102203.33
2019-04-29T20:45:11.749Z,102206.47
2019-04-29T20:48:19.474Z,102211.33
2019-04-29T20:51:23.353Z,102208.24
2019-04-29T20:54:28.627Z,102202.06
2019-04-29T20:57:32.513Z,102214.44
2019-04-29T21:00:38.809Z,102207.81
2019-04-29T21:03:48.449Z,102212.23
2019-04-29T21:06:59.851Z,102216.63
2019-04-29T21:09:55.774Z,102216.63
2019-04-29T21:13:22.506Z,102216.59
2019-04-29T21:16:30.869Z,102215.27
2019-04-29T21:19:34.940Z,102212.59
2019-04-29T21:22:38.864Z,102217.86
2019-04-29T21:25:42.709Z,102223.57
2019-04-29T21:28:47.085Z,102218.70
2019-04-29T21:31:58.457Z,102221.75
2019-04-29T21:35:05.812Z,102222.18
2019-04-29T21:38:30.448Z,102219.05
2019-04-29T21:41:45.916Z,102221.26
2019-04-29T21:44:49.764Z,102224.78
2019-04-29T21:47:54.623Z,102229.59
2019-04-29T21:50:58.747Z,102224.23
2019-04-29T21:54:02.636Z,102221.55
2019-04-29T21:57:06.533Z,102219.77
2019-04-29T22:00:11.162Z,102225.44
2019-04-29T22:03:15.456Z,102232.02
2019-04-29T22:06:19.655Z,102235.47
2019-04-29T22:09:34.054Z,102232.38
2019-04-29T22:12:29.025Z,102228.44
2019-04-29T22:15:38.209Z,102224.90
2019-04-29T22:18:38.543Z,102227.54
2019-04-29T22:21:42.567Z,102227.92
2019-04-29T22:24:46.404Z,102226.97
2019-04-29T22:27:50.320Z,102224.31
2019-04-29T22:30:55.150Z,102225.20
2019-04-29T22:33:59.670Z,102224.28
2019-04-29T22:37:05.377Z,102225.96
2019-04-29T22:40:09.515Z,102241.80
2019-04-29T22:43:29.116Z,102236.11
2019-04-29T22:46:32.979Z,102236.49
2019-04-29T22:49:36.881Z,102237.27
2019-04-29T22:52:40.753Z,102235.47
2019-04-29T22:55:45.248Z,102235.39
2019-04-29T22:58:49.116Z,102237.09
2019-04-29T23:01:52.899Z,102243.61
2019-04-29T23:04:56.731Z,102237.38
2019-04-29T23:08:01.471Z,102234.30
2019-04-29T23:11:05.552Z,102243.91
2019-04-29T23:14:10.195Z,102243.34
2019-04-29T23:17:15.779Z,102240.67
2019-04-29T23:20:37.425Z,102241.54
2019-04-29T23:23:45.575Z,102244.06
2019-04-29T23:26:49.394Z,102238.79
2019-04-29T23:29:53.256Z,102237.47
2019-04-29T23:32:57.397Z,102234.77
2019-04-29T23:36:01.292Z,102232.11
2019-04-29T23:39:06.300Z,102237.41
2019-04-29T23:42:12.135Z,102235.67
2019-04-29T23:45:20.897Z,102232.97
2019-04-29T23:48:23.890Z,102228.95
2019-04-29T23:51:33.766Z,102228.89
2019-04-29T23:54:43.746Z,102229.38
2019-04-29T23:58:02.936Z,102223.97
